Time;durP1;ratioP1;P1;durP2;ratioP2;P2;SDS_P1;SDS_P2;PMS_P1;PMS_P2;Temp;Humidity;BMP_temperature;BMP_pressure;BME280_temperature;BME280_humidity;BME280_pressure;Samples;Min_cycle;Max_cycle;Signal;HPM_P1;HPM_P2
2023/12/23 00:02:18;;;;;;;;;;;;;;;;;;2186053;67;2233;-26
2023/12/23 00:04:48;;;;;;;;;;;;;;;;;;2184096;59;2008;-26
2023/12/23 00:07:19;;;;;;;;;;;;;;;;;;2184754;59;2552;-26
2023/12/23 00:09:49;;;;;;;;;;;;;;;;;;2183666;59;2054;-26
2023/12/23 00:12:19;;;;;;;;;;;;;;;;;;2185414;59;1861;-27
2023/12/23 00:14:50;;;;;;;;;;;;;;;;;;2184524;59;2626;-27
2023/12/23 00:17:20;;;;;;;;;;;;;;;;;;2185495;59;3304;-26
2023/12/23 00:19:50;;;;;;;;;;;;;;;;;;2182623;59;2483;-26
2023/12/23 00:22:21;;;;;;;;;;;;;;;;;;2186536;59;1768;-26
2023/12/23 00:24:51;;;;;;;;;;;;;;;;;;2186550;60;2133;-27
2023/12/23 00:27:21;;;;;;;;;;;;;;;;;;2185240;59;2476;-26
2023/12/23 00:29:51;;;;;;;;;;;;;;;;;;2184498;60;2399;-26
2023/12/23 00:32:21;;;;;;;;;;;;;;;;;;2184798;59;2139;-26
2023/12/23 00:34:52;;;;;;;;;;;;;;;;;;2182926;62;2026;-26
2023/12/23 00:37:22;;;;;;;;;;;;;;;;;;2183596;59;2954;-26
2023/12/23 00:39:52;;;;;;;;;;;;;;;;;;2184145;67;1957;-26
2023/12/23 00:42:23;;;;;;;;;;;;;;;;;;2183809;59;1792;-26
2023/12/23 00:44:53;;;;;;;;;;;;;;;;;;2182980;65;1956;-26
2023/12/23 00:47:23;;;;;;;;;;;;;;;;;;2185476;59;2717;-26
2023/12/23 00:49:54;;;;;;;;;;;;;;;;;;2183284;67;2234;-26
2023/12/23 00:52:24;;;;;;;;;;;;;;;;;;2184217;67;1906;-26
2023/12/23 00:54:55;;;;;;;;;;;;;;;;;;2183580;67;1856;-26
2023/12/23 00:57:25;;;;;;;;;;;;;;;;;;2184442;59;2652;-26
2023/12/23 00:59:55;;;;;;;;;;;;;;;;;;2183720;59;1844;-26
2023/12/23 01:02:25;;;;;;;;;;;;;;;;;;2184921;60;2341;-26
2023/12/23 01:04:56;;;;;;;;;;;;;;;;;;2187396;59;2969;-26
2023/12/23 01:07:26;;;;;;;;;;;;;;;;;;2186294;59;2625;-26
2023/12/23 01:09:57;;;;;;;;;;;;;;;;;;2181245;59;1906;-24
2023/12/23 01:12:27;;;;;;;;;;;;;;;;;;2181434;59;2178;-24
2023/12/23 01:14:58;;;;;;;;;;;;;;;;;;2185783;59;2429;-24
2023/12/23 01:17:31;;;;;;;;;;;;;;;;;;2182754;59;2504;-24
2023/12/23 01:20:02;;;;;;;;;;;;;;;;;;2185046;59;2159;-27
2023/12/23 01:22:32;;;;;;;;;;;;;;;;;;2184322;59;2357;-27
2023/12/23 01:25:03;;;;;;;;;;;;;;;;;;2183989;67;2003;-26
2023/12/23 01:27:33;;;;;;;;;;;;;;;;;;2180690;67;2272;-27
2023/12/23 01:30:03;;;;;;;;;;;;;;;;;;2183463;67;2158;-26
2023/12/23 01:32:34;;;;;;;;;;;;;;;;;;2184126;59;2468;-26
2023/12/23 01:35:04;;;;;;;;;;;;;;;;;;2184268;67;2398;-26
2023/12/23 01:37:34;;;;;;;;;;;;;;;;;;2184648;67;1823;-27
2023/12/23 01:40:05;;;;;;;;;;;;;;;;;;2184562;59;2799;-26
2023/12/23 01:42:36;;;;;;;;;;;;;;;;;;2183578;67;1803;-26
2023/12/23 01:45:06;;;;;;;;;;;;;;;;;;2184753;59;2369;-26
2023/12/23 01:47:40;;;;;;;;;;;;;;;;;;2182312;64;2094;-26
2023/12/23 01:50:10;;;;;;;;;;;;;;;;;;2182035;59;2351;-26
2023/12/23 01:52:41;;;;;;;;;;;;;;;;;;2182431;59;2272;-26
2023/12/23 01:55:12;;;;;;;;;;;;;;;;;;2185830;59;2264;-26
2023/12/23 01:57:42;;;;;;;;;;;;;;;;;;2183280;59;1897;-26
2023/12/23 02:00:12;;;;;;;;;;;;;;;;;;2183816;67;2463;-26
2023/12/23 02:02:43;;;;;;;;;;;;;;;;;;2183258;59;1825;-26
2023/12/23 02:05:14;;;;;;;;;;;;;;;;;;2184335;59;1986;-26
2023/12/23 02:07:45;;;;;;;;;;;;;;;;;;2183338;59;3096;-26
2023/12/23 02:10:15;;;;;;;;;;;;;;;;;;2185358;59;1798;-26
2023/12/23 02:13:00;;;;;;;;;;;;;;;;;;2180201;67;2268;-26
2023/12/23 02:15:32;;;;;;;;;;;;;;;;;;2182092;67;2112;-26
2023/12/23 02:18:03;;;;;;;;;;;;;;;;;;2184238;67;2846;-24
2023/12/23 02:20:33;;;;;;;;;;;;;;;;;;2183661;67;2185;-24
2023/12/23 02:23:04;;;;;;;;;;;;;;;;;;2180845;59;3043;-24
2023/12/23 02:25:34;;;;;;;;;;;;;;;;;;2179914;67;1946;-23
2023/12/23 02:28:06;;;;;;;;;;;;;;;;;;2182144;59;2325;-24
2023/12/23 02:30:39;;;;;;;;;;;;;;;;;;2184812;67;1773;-23
2023/12/23 02:33:09;;;;;;;;;;;;;;;;;;2184656;59;2433;-26
2023/12/23 02:35:40;;;;;;;;;;;;;;;;;;2179994;67;3685;-26
2023/12/23 02:38:10;;;;;;;;;;;;;;;;;;2184227;59;1698;-26
2023/12/23 02:40:40;;;;;;;;;;;;;;;;;;2183761;59;2189;-26
2023/12/23 02:43:10;;;;;;;;;;;;;;;;;;2184947;67;2056;-26
2023/12/23 02:45:41;;;;;;;;;;;;;;;;;;2181957;59;2551;-26
2023/12/23 02:48:11;;;;;;;;;;;;;;;;;;2182969;67;2035;-26
2023/12/23 02:50:41;;;;;;;;;;;;;;;;;;2181674;67;2427;-26
2023/12/23 02:53:11;;;;;;;;;;;;;;;;;;2183400;67;2916;-26
2023/12/23 02:55:42;;;;;;;;;;;;;;;;;;2180281;59;2396;-26
2023/12/23 02:58:12;;;;;;;;;;;;;;;;;;2183752;60;1748;-26
2023/12/23 03:00:42;;;;;;;;;;;;;;;;;;2181658;67;2290;-27
2023/12/23 03:03:15;;;;;;;;;;;;;;;;;;2181601;67;2144;-26
2023/12/23 03:05:45;;;;;;;;;;;;;;;;;;2185367;59;1949;-24
2023/12/23 03:08:16;;;;;;;;;;;;;;;;;;2184336;59;2318;-24
2023/12/23 03:10:46;;;;;;;;;;;;;;;;;;2184800;59;2149;-23
2023/12/23 03:13:16;;;;;;;;;;;;;;;;;;2186481;59;3127;-24
2023/12/23 03:15:46;;;;;;;;;;;;;;;;;;2183590;59;1840;-24
2023/12/23 03:18:17;;;;;;;;;;;;;;;;;;2185211;59;2448;-24
2023/12/23 03:20:47;;;;;;;;;;;;;;;;;;2184279;67;2138;-24
2023/12/23 03:23:17;;;;;;;;;;;;;;;;;;2185176;60;2291;-24
2023/12/23 03:25:48;;;;;;;;;;;;;;;;;;2183891;67;2080;-26
2023/12/23 03:28:19;;;;;;;;;;;;;;;;;;2185094;59;2875;-26
2023/12/23 03:30:50;;;;;;;;;;;;;;;;;;2180913;59;2082;-26
2023/12/23 03:33:20;;;;;;;;;;;;;;;;;;2184273;59;2539;-26
2023/12/23 03:35:50;;;;;;;;;;;;;;;;;;2182659;59;2310;-26
2023/12/23 03:38:21;;;;;;;;;;;;;;;;;;2184894;59;1802;-26
2023/12/23 03:40:52;;;;;;;;;;;;;;;;;;2183252;67;2629;-26
2023/12/23 03:43:22;;;;;;;;;;;;;;;;;;2182222;67;1914;-26
2023/12/23 03:45:52;;;;;;;;;;;;;;;;;;2185649;59;2598;-26
2023/12/23 03:48:24;;;;;;;;;;;;;;;;;;2184450;67;1894;-26
2023/12/23 03:50:54;;;;;;;;;;;;;;;;;;2183207;59;2490;-26
2023/12/23 03:53:24;;;;;;;;;;;;;;;;;;2182494;67;2006;-26
2023/12/23 03:55:55;;;;;;;;;;;;;;;;;;2183343;67;2334;-26
2023/12/23 03:58:25;;;;;;;;;;;;;;;;;;2184806;59;1893;-26
2023/12/23 04:00:55;;;;;;;;;;;;;;;;;;2182416;67;2017;-26
2023/12/23 04:03:25;;;;;;;;;;;;;;;;;;2183887;67;2559;-26
2023/12/23 04:05:56;;;;;;;;;;;;;;;;;;2180058;59;2102;-26
2023/12/23 04:08:26;;;;;;;;;;;;;;;;;;2183873;67;2624;-26
2023/12/23 04:10:58;;;;;;;;;;;;;;;;;;2181320;59;1867;-26
2023/12/23 04:13:29;;;;;;;;;;;;;;;;;;2183527;59;2188;-26
2023/12/23 04:16:02;;;;;;;;;;;;;;;;;;2181213;60;1909;-26
2023/12/23 04:18:32;;;;;;;;;;;;;;;;;;2184454;60;2398;-26
2023/12/23 04:21:03;;;;;;;;;;;;;;;;;;2183545;67;2412;-26
2023/12/23 04:23:33;;;;;;;;;;;;;;;;;;2180943;59;2511;-26
2023/12/23 04:26:04;;;;;;;;;;;;;;;;;;2182163;60;2141;-26
2023/12/23 04:28:34;;;;;;;;;;;;;;;;;;2184095;59;2250;-26
2023/12/23 04:31:04;;;;;;;;;;;;;;;;;;2183331;59;2224;-26
2023/12/23 04:33:35;;;;;;;;;;;;;;;;;;2181483;67;2462;-27
2023/12/23 04:36:05;;;;;;;;;;;;;;;;;;2182813;59;2706;-26
2023/12/23 04:38:36;;;;;;;;;;;;;;;;;;2185288;59;1831;-26
2023/12/23 04:41:07;;;;;;;;;;;;;;;;;;2183817;67;2330;-26
2023/12/23 04:43:37;;;;;;;;;;;;;;;;;;2183063;67;2695;-26
2023/12/23 04:46:08;;;;;;;;;;;;;;;;;;2183077;67;3328;-26
2023/12/23 04:48:38;;;;;;;;;;;;;;;;;;2186751;59;1778;-26
2023/12/23 04:51:11;;;;;;;;;;;;;;;;;;2184349;59;2437;-26
2023/12/23 04:53:42;;;;;;;;;;;;;;;;;;2182711;67;2423;-26
2023/12/23 04:56:13;;;;;;;;;;;;;;;;;;2183876;64;2368;-26
2023/12/23 04:58:43;;;;;;;;;;;;;;;;;;2187178;59;2226;-26
2023/12/23 05:01:13;;;;;;;;;;;;;;;;;;2184531;67;1905;-26
2023/12/23 05:03:44;;;;;;;;;;;;;;;;;;2184972;59;2475;-26
2023/12/23 05:06:14;;;;;;;;;;;;;;;;;;2184780;59;3178;-26
2023/12/23 05:08:44;;;;;;;;;;;;;;;;;;2184502;59;2390;-26
2023/12/23 05:11:14;;;;;;;;;;;;;;;;;;2182302;67;2056;-26
2023/12/23 05:13:45;;;;;;;;;;;;;;;;;;2185075;59;2390;-26
2023/12/23 05:16:15;;;;;;;;;;;;;;;;;;2182726;67;2096;-26
2023/12/23 05:18:45;;;;;;;;;;;;;;;;;;2184625;67;2353;-26
2023/12/23 05:21:16;;;;;;;;;;;;;;;;;;2182649;59;2212;-26
2023/12/23 05:23:46;;;;;;;;;;;;;;;;;;2183632;67;2862;-26
2023/12/23 05:26:17;;;;;;;;;;;;;;;;;;2182977;67;2509;-26
2023/12/23 05:28:48;;;;;;;;;;;;;;;;;;2183644;60;2654;-26
2023/12/23 05:31:18;;;;;;;;;;;;;;;;;;2182386;59;2604;-26
2023/12/23 05:33:51;;;;;;;;;;;;;;;;;;2183493;67;2538;-26
2023/12/23 05:36:22;;;;;;;;;;;;;;;;;;2183946;59;2397;-23
2023/12/23 05:38:52;;;;;;;;;;;;;;;;;;2183176;67;2014;-24
2023/12/23 05:41:23;;;;;;;;;;;;;;;;;;2182128;67;2969;-24
2023/12/23 05:43:53;;;;;;;;;;;;;;;;;;2182242;59;2036;-24
2023/12/23 05:46:23;;;;;;;;;;;;;;;;;;2181307;67;2389;-24
2023/12/23 05:48:53;;;;;;;;;;;;;;;;;;2182849;67;1871;-24
2023/12/23 05:51:23;;;;;;;;;;;;;;;;;;2184372;67;2379;-24
2023/12/23 05:53:54;;;;;;;;;;;;;;;;;;2183995;67;2123;-24
2023/12/23 05:56:24;;;;;;;;;;;;;;;;;;2183731;59;1910;-24
2023/12/23 05:58:56;;;;;;;;;;;;;;;;;;2194267;60;2428;-24
2023/12/23 06:01:26;;;;;;;;;;;;;;;;;;2184016;67;2461;-24
2023/12/23 06:03:56;;;;;;;;;;;;;;;;;;2182196;60;2419;-24
2023/12/23 06:06:27;;;;;;;;;;;;;;;;;;2184145;59;1939;-24
2023/12/23 06:08:57;;;;;;;;;;;;;;;;;;2179389;67;2478;-24
2023/12/23 06:11:28;;;;;;;;;;;;;;;;;;2184101;59;2038;-24
2023/12/23 06:13:59;;;;;;;;;;;;;;;;;;2183832;59;2553;-24
2023/12/23 06:16:29;;;;;;;;;;;;;;;;;;2183659;59;1843;-24
2023/12/23 06:18:59;;;;;;;;;;;;;;;;;;2182361;67;2748;-23
2023/12/23 06:21:29;;;;;;;;;;;;;;;;;;2183519;59;3199;-24
2023/12/23 06:24:00;;;;;;;;;;;;;;;;;;2179828;59;6690;-24
2023/12/23 06:26:30;;;;;;;;;;;;;;;;;;2184328;59;2112;-24
2023/12/23 06:29:00;;;;;;;;;;;;;;;;;;2180559;67;2046;-24
2023/12/23 06:31:30;;;;;;;;;;;;;;;;;;2183727;59;2642;-24
2023/12/23 06:34:01;;;;;;;;;;;;;;;;;;2182772;59;2261;-24
2023/12/23 06:36:31;;;;;;;;;;;;;;;;;;2187390;59;2654;-25
2023/12/23 06:39:03;;;;;;;;;;;;;;;;;;2183213;59;2314;-26
2023/12/23 06:41:33;;;;;;;;;;;;;;;;;;2184262;59;2301;-26
2023/12/23 06:44:03;;;;;;;;;;;;;;;;;;2180134;67;2353;-26
2023/12/23 06:46:34;;;;;;;;;;;;;;;;;;2183575;60;2312;-26
2023/12/23 06:49:04;;;;;;;;;;;;;;;;;;2182600;67;1868;-26
2023/12/23 06:51:34;;;;;;;;;;;;;;;;;;2183212;67;2960;-26
2023/12/23 06:54:04;;;;;;;;;;;;;;;;;;2182041;67;1951;-26
2023/12/23 06:56:35;;;;;;;;;;;;;;;;;;2184085;59;2038;-26
2023/12/23 06:59:09;;;;;;;;;;;;;;;;;;2182765;67;2464;-26
2023/12/23 07:01:39;;;;;;;;;;;;;;;;;;2184762;67;2196;-26
2023/12/23 07:04:10;;;;;;;;;;;;;;;;;;2182303;60;2611;-26
2023/12/23 07:06:40;;;;;;;;;;;;;;;;;;2182627;59;2700;-26
2023/12/23 07:09:10;;;;;;;;;;;;;;;;;;2182674;59;2276;-26
2023/12/23 07:11:40;;;;;;;;;;;;;;;;;;2182659;67;1888;-26
2023/12/23 07:14:11;;;;;;;;;;;;;;;;;;2182946;59;2287;-26
2023/12/23 07:16:42;;;;;;;;;;;;;;;;;;2180462;67;1897;-26
2023/12/23 07:19:14;;;;;;;;;;;;;;;;;;2180063;67;2420;-26
2023/12/23 07:21:44;;;;;;;;;;;;;;;;;;2183158;59;2132;-26
2023/12/23 07:24:14;;;;;;;;;;;;;;;;;;2182726;59;2334;-26
2023/12/23 07:26:45;;;;;;;;;;;;;;;;;;2184081;67;2639;-26
2023/12/23 07:29:16;;;;;;;;;;;;;;;;;;2182580;67;2500;-26
2023/12/23 07:31:46;;;;;;;;;;;;;;;;;;2183750;59;2442;-26
2023/12/23 07:34:16;;;;;;;;;;;;;;;;;;2183381;67;2542;-26
2023/12/23 07:36:46;;;;;;;;;;;;;;;;;;2183769;67;2565;-26
2023/12/23 07:39:17;;;;;;;;;;;;;;;;;;2183331;60;1966;-26
2023/12/23 07:41:47;;;;;;;;;;;;;;;;;;2183313;67;2594;-26
2023/12/23 07:44:18;;;;;;;;;;;;;;;;;;2182552;67;2441;-26
2023/12/23 07:46:48;;;;;;;;;;;;;;;;;;2183428;67;2306;-26
2023/12/23 07:49:18;;;;;;;;;;;;;;;;;;2182586;67;2137;-26
2023/12/23 07:51:48;;;;;;;;;;;;;;;;;;2184223;67;1837;-26
2023/12/23 07:54:18;;;;;;;;;;;;;;;;;;2183307;67;2535;-26
2023/12/23 07:56:49;;;;;;;;;;;;;;;;;;2184892;67;2086;-26
2023/12/23 07:59:19;;;;;;;;;;;;;;;;;;2182256;67;2356;-26
2023/12/23 08:01:49;;;;;;;;;;;;;;;;;;2182459;67;1777;-26
2023/12/23 08:04:19;;;;;;;;;;;;;;;;;;2182007;67;2803;-26
2023/12/23 08:06:50;;;;;;;;;;;;;;;;;;2185290;59;2610;-26
2023/12/23 08:09:20;;;;;;;;;;;;;;;;;;2182032;67;2706;-26
2023/12/23 08:11:50;;;;;;;;;;;;;;;;;;2186292;59;2394;-26
2023/12/23 08:14:21;;;;;;;;;;;;;;;;;;2186474;59;3489;-26
2023/12/23 08:16:52;;;;;;;;;;;;;;;;;;2184733;59;2229;-26
2023/12/23 08:19:25;;;;;;;;;;;;;;;;;;2182575;59;2432;-26
2023/12/23 08:21:55;;;;;;;;;;;;;;;;;;2182269;59;2645;-26
2023/12/23 08:24:26;;;;;;;;;;;;;;;;;;2183006;59;2115;-26
2023/12/23 08:26:56;;;;;;;;;;;;;;;;;;2184018;67;2817;-26
2023/12/23 08:29:26;;;;;;;;;;;;;;;;;;2183551;59;2188;-26
2023/12/23 08:31:57;;;;;;;;;;;;;;;;;;2183140;59;2237;-26
2023/12/23 08:34:28;;;;;;;;;;;;;;;;;;2185046;59;2596;-26
2023/12/23 08:36:58;;;;;;;;;;;;;;;;;;2184603;59;2163;-26
2023/12/23 08:39:28;;;;;;;;;;;;;;;;;;2182821;59;1838;-26
2023/12/23 08:41:58;;;;;;;;;;;;;;;;;;2185784;60;1872;-26
2023/12/23 08:44:29;;;;;;;;;;;;;;;;;;2183765;59;2221;-26
2023/12/23 08:46:59;;;;;;;;;;;;;;;;;;2181388;60;2788;-26
2023/12/23 08:49:29;;;;;;;;;;;;;;;;;;2182972;59;2614;-26
2023/12/23 08:52:00;;;;;;;;;;;;;;;;;;2183405;59;2929;-26
2023/12/23 08:54:30;;;;;;;;;;;;;;;;;;2183633;59;2051;-26
2023/12/23 08:57:00;;;;;;;;;;;;;;;;;;2183722;59;2664;-26
2023/12/23 08:59:30;;;;;;;;;;;;;;;;;;2184143;59;2472;-26
2023/12/23 09:02:02;;;;;;;;;;;;;;;;;;2188681;54;2667;-18
2023/12/23 09:04:33;;;;;;;;;;;;;;;;;;2186972;59;2196;-19
2023/12/23 09:07:04;;;;;;;;;;;;;;;;;;2186100;59;2730;-19
2023/12/23 09:09:34;;;;;;;;;;;;;;;;;;2187783;59;2828;-19
2023/12/23 09:12:14;;;;;;;;;;;;;;;;;;2186523;59;1864;-19
2023/12/23 09:14:45;;;;;;;;;;;;;;;;;;2187179;59;2529;-18
2023/12/23 09:17:15;;;;;;;;;;;;;;;;;;2187549;59;1881;-18
2023/12/23 09:19:46;;;;;;;;;;;;;;;;;;2184611;59;2916;-19
2023/12/23 09:22:16;;;;;;;;;;;;;;;;;;2185136;59;2568;-18
2023/12/23 09:24:46;;;;;;;;;;;;;;;;;;2186915;67;1972;-18
2023/12/23 09:27:17;;;;;;;;;;;;;;;;;;2185388;59;2858;-19
2023/12/23 09:29:47;;;;;;;;;;;;;;;;;;2183937;59;2599;-18
2023/12/23 09:32:17;;;;;;;;;;;;;;;;;;2163592;59;2484;-19
2023/12/23 09:34:49;;;;;;;;;;;;;;;;;;2186314;67;2269;-20
2023/12/23 09:37:19;;;;;;;;;;;;;;;;;;2185495;67;2264;-20
2023/12/23 09:39:49;;;;;;;;;;;;;;;;;;2187481;67;1775;-20
2023/12/23 09:42:21;;;;;;;;;;;;;;;;;;2185616;67;2316;-20
2023/12/23 09:44:52;;;;;;;;;;;;;;;;;;2185490;59;2522;-20
2023/12/23 09:47:22;;;;;;;;;;;;;;;;;;2186369;67;2258;-20
2023/12/23 09:49:52;;;;;;;;;;;;;;;;;;2184877;59;2530;-20
2023/12/23 09:52:23;;;;;;;;;;;;;;;;;;2184390;67;2176;-23
2023/12/23 09:54:57;;;;;;;;;;;;;;;;;;2185763;59;3182;-20
2023/12/23 09:57:28;;;;;;;;;;;;;;;;;;2186032;59;2066;-20
2023/12/23 09:59:58;;;;;;;;;;;;;;;;;;2186879;67;1784;-20
2023/12/23 10:02:29;;;;;;;;;;;;;;;;;;2184392;59;2406;-20
2023/12/23 10:04:59;;;;;;;;;;;;;;;;;;2184726;60;2438;-20
2023/12/23 10:07:29;;;;;;;;;;;;;;;;;;2184790;67;2276;-20
2023/12/23 10:10:00;;;;;;;;;;;;;;;;;;2186861;59;2192;-20
2023/12/23 10:12:30;;;;;;;;;;;;;;;;;;2188162;59;2316;-20
2023/12/23 10:15:00;;;;;;;;;;;;;;;;;;2187433;59;2218;-20
2023/12/23 10:17:31;;;;;;;;;;;;;;;;;;2185553;67;2528;-20
2023/12/23 10:20:02;;;;;;;;;;;;;;;;;;2186741;67;1538;-20
2023/12/23 10:22:32;;;;;;;;;;;;;;;;;;2186198;59;2561;-20
2023/12/23 10:25:02;;;;;;;;;;;;;;;;;;2186287;67;1935;-20
2023/12/23 10:27:34;;;;;;;;;;;;;;;;;;2185825;60;2506;-20
2023/12/23 10:30:07;;;;;;;;;;;;;;;;;;2185604;67;2709;-20
2023/12/23 10:32:38;;;;;;;;;;;;;;;;;;2186449;59;2188;-20
2023/12/23 10:35:13;;;;;;;;;;;;;;;;;;2186568;67;2147;-20
2023/12/23 10:37:44;;;;;;;;;;;;;;;;;;2187010;59;2315;-20
2023/12/23 10:40:20;;;;;;;;;;;;;;;;;;2184674;67;2003;-20
2023/12/23 10:42:51;;;;;;;;;;;;;;;;;;2186302;59;2320;-20
2023/12/23 10:45:22;;;;;;;;;;;;;;;;;;2185490;59;2445;-20
2023/12/23 10:47:53;;;;;;;;;;;;;;;;;;2185567;59;2435;-20
2023/12/23 10:50:23;;;;;;;;;;;;;;;;;;2186034;59;1939;-20
2023/12/23 10:52:54;;;;;;;;;;;;;;;;;;2186930;67;2107;-20
2023/12/23 10:55:25;;;;;;;;;;;;;;;;;;2185273;59;2762;-20
2023/12/23 10:57:55;;;;;;;;;;;;;;;;;;2185890;59;2560;-20
2023/12/23 11:00:25;;;;;;;;;;;;;;;;;;2186160;67;1731;-20
2023/12/23 11:02:58;;;;;;;;;;;;;;;;;;2187944;59;1967;-20
2023/12/23 11:05:33;;;;;;;;;;;;;;;;;;2185665;60;2461;-20
2023/12/23 11:08:06;;;;;;;;;;;;;;;;;;2188873;67;2083;-20
2023/12/23 11:10:38;;;;;;;;;;;;;;;;;;2185521;59;2177;-20
2023/12/23 11:13:09;;;;;;;;;;;;;;;;;;2182970;59;2029;-20
2023/12/23 11:15:39;;;;;;;;;;;;;;;;;;2190195;59;2780;-20
2023/12/23 11:18:10;;;;;;;;;;;;;;;;;;2184619;67;1825;-20
2023/12/23 11:20:40;;;;;;;;;;;;;;;;;;2184836;59;2393;-20
2023/12/23 11:23:26;;;;;;;;;;;;;;;;;;2185025;67;1752;-20
2023/12/23 11:25:56;;;;;;;;;;;;;;;;;;2187359;67;2327;-20
2023/12/23 11:28:28;;;;;;;;;;;;;;;;;;2183149;67;2744;-20
2023/12/23 11:30:59;;;;;;;;;;;;;;;;;;2183964;59;2389;-20
2023/12/23 11:33:30;;;;;;;;;;;;;;;;;;2184523;67;2382;-20
2023/12/23 11:36:01;;;;;;;;;;;;;;;;;;2185937;67;1972;-20
2023/12/23 11:38:47;;;;;;;;;;;;;;;;;;2184242;67;2374;-20
2023/12/23 11:41:21;;;;;;;;;;;;;;;;;;2183243;67;2637;-20
2023/12/23 11:43:52;;;;;;;;;;;;;;;;;;2184816;67;2012;-20
2023/12/23 11:46:23;;;;;;;;;;;;;;;;;;2183178;67;2510;-20
2023/12/23 11:48:55;;;;;;;;;;;;;;;;;;2185817;67;1900;-20
2023/12/23 11:51:26;;;;;;;;;;;;;;;;;;2185239;67;2234;-21
2023/12/23 11:53:56;;;;;;;;;;;;;;;;;;2186034;67;2493;-20
2023/12/23 11:56:27;;;;;;;;;;;;;;;;;;2183443;59;3321;-20
2023/12/23 11:59:00;;;;;;;;;;;;;;;;;;2187782;67;2435;-20
2023/12/23 12:01:33;;;;;;;;;;;;;;;;;;2184221;59;2004;-20
2023/12/23 12:04:04;;;;;;;;;;;;;;;;;;2185451;67;1996;-20
2023/12/23 12:06:35;;;;;;;;;;;;;;;;;;2183786;67;1933;-20
2023/12/23 12:09:06;;;;;;;;;;;;;;;;;;2185637;67;2059;-20
2023/12/23 12:11:37;;;;;;;;;;;;;;;;;;2184655;59;1904;-20
2023/12/23 12:14:08;;;;;;;;;;;;;;;;;;2188324;59;2157;-20
2023/12/23 12:16:40;;;;;;;;;;;;;;;;;;2183859;60;1844;-20
2023/12/23 12:19:12;;;;;;;;;;;;;;;;;;2184750;67;2170;-20
2023/12/23 12:21:43;;;;;;;;;;;;;;;;;;2184998;67;2053;-20
2023/12/23 12:24:13;;;;;;;;;;;;;;;;;;2185043;67;1915;-20
2023/12/23 12:26:46;;;;;;;;;;;;;;;;;;2185598;67;1838;-20
2023/12/23 12:29:16;;;;;;;;;;;;;;;;;;2185295;63;1871;-20
2023/12/23 12:31:48;;;;;;;;;;;;;;;;;;2185656;59;2182;-20
2023/12/23 12:34:21;;;;;;;;;;;;;;;;;;2185042;67;2646;-20
2023/12/23 12:36:51;;;;;;;;;;;;;;;;;;2187865;67;2061;-20
2023/12/23 12:39:22;;;;;;;;;;;;;;;;;;2184328;67;1993;-20
2023/12/23 12:41:52;;;;;;;;;;;;;;;;;;2185650;59;2368;-20
2023/12/23 12:44:23;;;;;;;;;;;;;;;;;;2185354;67;1966;-20
2023/12/23 12:46:57;;;;;;;;;;;;;;;;;;2185197;67;2163;-20
2023/12/23 12:49:27;;;;;;;;;;;;;;;;;;2183947;67;2814;-20
2023/12/23 12:51:57;;;;;;;;;;;;;;;;;;2185277;59;2097;-21
2023/12/23 12:54:29;;;;;;;;;;;;;;;;;;2184840;59;3047;-20
2023/12/23 12:56:59;;;;;;;;;;;;;;;;;;2186010;67;3268;-20
2023/12/23 12:59:30;;;;;;;;;;;;;;;;;;2183661;59;3672;-19
2023/12/23 13:02:05;;;;;;;;;;;;;;;;;;2183378;59;1962;-18
2023/12/23 13:04:35;;;;;;;;;;;;;;;;;;2184238;59;2077;-18
2023/12/23 13:07:06;;;;;;;;;;;;;;;;;;2183868;67;1790;-18
2023/12/23 13:09:36;;;;;;;;;;;;;;;;;;2185287;59;2469;-18
2023/12/23 13:12:10;;;;;;;;;;;;;;;;;;2181270;59;2699;-18
2023/12/23 13:14:40;;;;;;;;;;;;;;;;;;2187424;59;2323;-19
2023/12/23 13:17:10;;;;;;;;;;;;;;;;;;2185084;67;2095;-18
2023/12/23 13:19:43;;;;;;;;;;;;;;;;;;2184334;67;2611;-18
2023/12/23 13:22:14;;;;;;;;;;;;;;;;;;2185889;67;2155;-18
2023/12/23 13:24:44;;;;;;;;;;;;;;;;;;2183166;59;3385;-19
2023/12/23 13:27:17;;;;;;;;;;;;;;;;;;2183410;59;2017;-19
2023/12/23 13:29:47;;;;;;;;;;;;;;;;;;2186405;67;2047;-18
2023/12/23 13:32:18;;;;;;;;;;;;;;;;;;2185515;59;2251;-18
2023/12/23 13:34:48;;;;;;;;;;;;;;;;;;2183337;59;2878;-18
2023/12/23 13:37:18;;;;;;;;;;;;;;;;;;2183618;67;5849;-18
2023/12/23 13:39:49;;;;;;;;;;;;;;;;;;2184947;59;2807;-19
2023/12/23 13:42:19;;;;;;;;;;;;;;;;;;2185766;59;3603;-18
2023/12/23 13:44:50;;;;;;;;;;;;;;;;;;2184018;67;2628;-19
2023/12/23 13:47:20;;;;;;;;;;;;;;;;;;2185339;59;2975;-18
2023/12/23 13:49:50;;;;;;;;;;;;;;;;;;2185911;67;1878;-19
2023/12/23 13:52:21;;;;;;;;;;;;;;;;;;2185155;67;2102;-19
2023/12/23 13:54:51;;;;;;;;;;;;;;;;;;2185342;67;1790;-18
2023/12/23 13:57:21;;;;;;;;;;;;;;;;;;2184621;67;1885;-20
2023/12/23 13:59:52;;;;;;;;;;;;;;;;;;2186228;67;2537;-20
2023/12/23 14:02:22;;;;;;;;;;;;;;;;;;2184796;59;3260;-20
2023/12/23 14:04:53;;;;;;;;;;;;;;;;;;2185060;67;2876;-20
2023/12/23 14:07:23;;;;;;;;;;;;;;;;;;2184049;67;2406;-20
2023/12/23 14:09:53;;;;;;;;;;;;;;;;;;2199992;67;2151;-20
2023/12/23 14:12:24;;;;;;;;;;;;;;;;;;2185585;59;2099;-20
2023/12/23 14:14:54;;;;;;;;;;;;;;;;;;2186060;59;2096;-20
2023/12/23 14:17:24;;;;;;;;;;;;;;;;;;2185189;67;2462;-20
2023/12/23 14:19:54;;;;;;;;;;;;;;;;;;2187907;67;1877;-20
2023/12/23 14:22:25;;;;;;;;;;;;;;;;;;2185720;67;2937;-20
2023/12/23 14:24:55;;;;;;;;;;;;;;;;;;2185953;67;2111;-20
2023/12/23 14:27:25;;;;;;;;;;;;;;;;;;2185669;67;2120;-20
2023/12/23 14:29:55;;;;;;;;;;;;;;;;;;2186190;67;1867;-20
2023/12/23 14:32:26;;;;;;;;;;;;;;;;;;2184678;59;3012;-30
2023/12/23 14:34:56;;;;;;;;;;;;;;;;;;2184764;67;2222;-20
2023/12/23 14:37:26;;;;;;;;;;;;;;;;;;2184692;59;1944;-20
2023/12/23 14:39:57;;;;;;;;;;;;;;;;;;2185370;59;1827;-20
2023/12/23 14:42:27;;;;;;;;;;;;;;;;;;2184910;67;1786;-19
2023/12/23 14:44:58;;;;;;;;;;;;;;;;;;2185287;67;2627;-18
2023/12/23 14:47:28;;;;;;;;;;;;;;;;;;2183709;67;2131;-18
2023/12/23 14:49:58;;;;;;;;;;;;;;;;;;2185916;67;1769;-20
2023/12/23 14:52:28;;;;;;;;;;;;;;;;;;2185462;67;2362;-20
2023/12/23 14:54:59;;;;;;;;;;;;;;;;;;2185686;67;2455;-20
2023/12/23 14:57:29;;;;;;;;;;;;;;;;;;2186239;59;2732;-20
2023/12/23 14:59:59;;;;;;;;;;;;;;;;;;2186270;67;2199;-20
2023/12/23 15:02:29;;;;;;;;;;;;;;;;;;2188191;59;2700;-18
2023/12/23 15:05:00;;;;;;;;;;;;;;;;;;2186375;67;2015;-20
2023/12/23 15:07:30;;;;;;;;;;;;;;;;;;2186014;67;2771;-20
2023/12/23 15:10:01;;;;;;;;;;;;;;;;;;2185240;59;2117;-18
2023/12/23 15:12:32;;;;;;;;;;;;;;;;;;2186589;59;2002;-19
2023/12/23 15:15:03;;;;;;;;;;;;;;;;;;2186295;59;1802;-19
2023/12/23 15:17:33;;;;;;;;;;;;;;;;;;2185966;67;1786;-19
2023/12/23 15:20:05;;;;;;;;;;;;;;;;;;2185790;59;3118;-18
2023/12/23 15:22:35;;;;;;;;;;;;;;;;;;2185201;67;1923;-19
2023/12/23 15:25:06;;;;;;;;;;;;;;;;;;2186583;67;2079;-19
2023/12/23 15:27:36;;;;;;;;;;;;;;;;;;2185097;67;2008;-18
2023/12/23 15:30:07;;;;;;;;;;;;;;;;;;2186286;59;1957;-18
2023/12/23 15:32:37;;;;;;;;;;;;;;;;;;2184342;60;2215;-20
2023/12/23 15:35:08;;;;;;;;;;;;;;;;;;2183859;59;2806;-20
2023/12/23 15:37:38;;;;;;;;;;;;;;;;;;2183083;67;2023;-20
2023/12/23 15:40:09;;;;;;;;;;;;;;;;;;2187225;59;1711;-20
2023/12/23 15:42:40;;;;;;;;;;;;;;;;;;2183772;59;2565;-20
2023/12/23 15:45:10;;;;;;;;;;;;;;;;;;2187788;60;1943;-19
2023/12/23 15:47:41;;;;;;;;;;;;;;;;;;2182982;67;1964;-20
2023/12/23 15:50:11;;;;;;;;;;;;;;;;;;2184223;67;1973;-20
2023/12/23 15:52:42;;;;;;;;;;;;;;;;;;2182972;59;2429;-20
2023/12/23 15:55:12;;;;;;;;;;;;;;;;;;2184196;59;2454;-20
2023/12/23 15:57:43;;;;;;;;;;;;;;;;;;2184903;59;1857;-20
2023/12/23 16:00:14;;;;;;;;;;;;;;;;;;2184384;59;3566;-20
2023/12/23 16:02:44;;;;;;;;;;;;;;;;;;2182997;59;1727;-20
2023/12/23 16:05:15;;;;;;;;;;;;;;;;;;2183923;59;2739;-20
2023/12/23 16:07:45;;;;;;;;;;;;;;;;;;2180140;59;2132;-20
2023/12/23 16:10:16;;;;;;;;;;;;;;;;;;2180408;59;1779;-19
2023/12/23 16:12:46;;;;;;;;;;;;;;;;;;2184724;59;2592;-19
2023/12/23 16:15:17;;;;;;;;;;;;;;;;;;2183968;59;3179;-18
2023/12/23 16:17:47;;;;;;;;;;;;;;;;;;2184256;67;1891;-18
2023/12/23 16:20:19;;;;;;;;;;;;;;;;;;2180745;59;1720;-19
2023/12/23 16:22:53;;;;;;;;;;;;;;;;;;2184582;59;1739;-20
2023/12/23 16:25:24;;;;;;;;;;;;;;;;;;2184524;59;1916;-20
2023/12/23 16:27:55;;;;;;;;;;;;;;;;;;2184232;59;2499;-20
2023/12/23 16:30:26;;;;;;;;;;;;;;;;;;2184420;59;2583;-18
2023/12/23 16:32:56;;;;;;;;;;;;;;;;;;2187167;59;2155;-18
2023/12/23 16:35:26;;;;;;;;;;;;;;;;;;2184094;59;2281;-20
2023/12/23 16:37:57;;;;;;;;;;;;;;;;;;2181834;59;2716;-18
2023/12/23 16:40:27;;;;;;;;;;;;;;;;;;2183984;59;2362;-20
2023/12/23 16:42:57;;;;;;;;;;;;;;;;;;2184380;59;2543;-18
2023/12/23 16:45:34;;;;;;;;;;;;;;;;;;2183192;59;2003;-20
2023/12/23 16:48:05;;;;;;;;;;;;;;;;;;2197360;59;2375;-20
2023/12/23 16:50:36;;;;;;;;;;;;;;;;;;2178213;59;2274;-20
2023/12/23 16:53:06;;;;;;;;;;;;;;;;;;2185176;60;2107;-18
2023/12/23 16:55:37;;;;;;;;;;;;;;;;;;2178549;59;2520;-20
2023/12/23 16:58:09;;;;;;;;;;;;;;;;;;2184152;59;2229;-20
2023/12/23 17:00:39;;;;;;;;;;;;;;;;;;2183323;59;2073;-20
2023/12/23 17:03:09;;;;;;;;;;;;;;;;;;2185889;59;2175;-20
2023/12/23 17:05:40;;;;;;;;;;;;;;;;;;2184803;59;1973;-18
2023/12/23 17:08:11;;;;;;;;;;;;;;;;;;2185033;59;1711;-20
2023/12/23 17:10:41;;;;;;;;;;;;;;;;;;2188429;67;2567;-18
2023/12/23 17:13:11;;;;;;;;;;;;;;;;;;2188233;59;2705;-18
2023/12/23 17:15:42;;;;;;;;;;;;;;;;;;2183899;59;1913;-20
2023/12/23 17:18:12;;;;;;;;;;;;;;;;;;2185261;59;1728;-20
2023/12/23 17:20:44;;;;;;;;;;;;;;;;;;2182735;59;1890;-21
2023/12/23 17:23:14;;;;;;;;;;;;;;;;;;2184320;59;1686;-20
2023/12/23 17:25:46;;;;;;;;;;;;;;;;;;2184447;67;2147;-19
2023/12/23 17:28:16;;;;;;;;;;;;;;;;;;2185531;67;2623;-20